sensor_id;sensor_type;location;lat;lon;timestamp;temperature;humidity
13850;DHT22;6995;52.618;13.488;2023-08-08T00:00:59;14.90;69.00
13850;DHT22;6995;52.618;13.488;2023-08-08T00:03:24;14.80;78.60
13850;DHT22;6995;52.618;13.488;2023-08-08T00:05:50;14.70;78.40
13850;DHT22;6995;52.618;13.488;2023-08-08T00:08:16;14.70;79.90
13850;DHT22;6995;52.618;13.488;2023-08-08T00:10:41;14.60;81.20
13850;DHT22;6995;52.618;13.488;2023-08-08T00:13:07;14.60;86.10
13850;DHT22;6995;52.618;13.488;2023-08-08T00:15:33;14.60;82.80
13850;DHT22;6995;52.618;13.488;2023-08-08T00:17:59;14.60;86.20
13850;DHT22;6995;52.618;13.488;2023-08-08T00:20:24;14.50;90.80
13850;DHT22;6995;52.618;13.488;2023-08-08T00:22:50;14.50;91.60
13850;DHT22;6995;52.618;13.488;2023-08-08T00:25:15;14.40;93.50
13850;DHT22;6995;52.618;13.488;2023-08-08T00:27:41;14.40;96.50
13850;DHT22;6995;52.618;13.488;2023-08-08T00:30:08;14.40;99.70
13850;DHT22;6995;52.618;13.488;2023-08-08T00:32:35;14.30;99.50
13850;DHT22;6995;52.618;13.488;2023-08-08T00:35:01;14.20;99.90
13850;DHT22;6995;52.618;13.488;2023-08-08T00:37:26;14.30;99.90
13850;DHT22;6995;52.618;13.488;2023-08-08T00:39:52;14.30;99.90
13850;DHT22;6995;52.618;13.488;2023-08-08T00:42:17;14.20;99.90
13850;DHT22;6995;52.618;13.488;2023-08-08T00:44:43;14.20;99.90
13850;DHT22;6995;52.618;13.488;2023-08-08T00:47:09;14.20;99.90
13850;DHT22;6995;52.618;13.488;2023-08-08T00:49:35;14.20;99.90
13850;DHT22;6995;52.618;13.488;2023-08-08T00:52:02;14.10;99.90
13850;DHT22;6995;52.618;13.488;2023-08-08T00:54:28;14.10;99.90
13850;DHT22;6995;52.618;13.488;2023-08-08T00:56:54;14.10;99.90
13850;DHT22;6995;52.618;13.488;2023-08-08T00:59:21;14.10;99.90
13850;DHT22;6995;52.618;13.488;2023-08-08T01:01:46;14.00;99.90
13850;DHT22;6995;52.618;13.488;2023-08-08T01:04:12;14.10;99.90
13850;DHT22;6995;52.618;13.488;2023-08-08T01:06:48;14.10;99.90
13850;DHT22;6995;52.618;13.488;2023-08-08T01:11:44;14.20;99.90
13850;DHT22;6995;52.618;13.488;2023-08-08T01:14:13;14.20;99.90
13850;DHT22;6995;52.618;13.488;2023-08-08T01:16:41;14.10;99.90
13850;DHT22;6995;52.618;13.488;2023-08-08T01:19:15;14.00;99.90
13850;DHT22;6995;52.618;13.488;2023-08-08T01:21:45;14.00;99.90
13850;DHT22;6995;52.618;13.488;2023-08-08T01:24:25;14.00;99.90
13850;DHT22;6995;52.618;13.488;2023-08-08T01:26:53;14.00;99.90
13850;DHT22;6995;52.618;13.488;2023-08-08T01:29:19;14.00;99.90
13850;DHT22;6995;52.618;13.488;2023-08-08T01:31:44;14.00;99.90
13850;DHT22;6995;52.618;13.488;2023-08-08T01:34:10;14.00;99.90
13850;DHT22;6995;52.618;13.488;2023-08-08T01:37:11;14.10;98.10
13850;DHT22;6995;52.618;13.488;2023-08-08T01:39:42;14.10;92.20
13850;DHT22;6995;52.618;13.488;2023-08-08T01:42:10;14.10;89.50
13850;DHT22;6995;52.618;13.488;2023-08-08T01:44:37;14.10;84.50
13850;DHT22;6995;52.618;13.488;2023-08-08T01:47:05;14.10;79.00
13850;DHT22;6995;52.618;13.488;2023-08-08T01:49:31;14.10;81.70
13850;DHT22;6995;52.618;13.488;2023-08-08T01:51:56;14.10;82.70
13850;DHT22;6995;52.618;13.488;2023-08-08T01:54:22;14.10;81.00
13850;DHT22;6995;52.618;13.488;2023-08-08T01:56:47;14.10;77.90
13850;DHT22;6995;52.618;13.488;2023-08-08T01:59:13;14.10;75.20
13850;DHT22;6995;52.618;13.488;2023-08-08T02:01:39;14.10;72.00
13850;DHT22;6995;52.618;13.488;2023-08-08T02:04:04;14.10;72.10
13850;DHT22;6995;52.618;13.488;2023-08-08T02:06:30;14.00;66.30
13850;DHT22;6995;52.618;13.488;2023-08-08T02:08:56;14.10;68.90
13850;DHT22;6995;52.618;13.488;2023-08-08T02:11:21;14.10;69.60
13850;DHT22;6995;52.618;13.488;2023-08-08T02:13:47;14.10;69.40
13850;DHT22;6995;52.618;13.488;2023-08-08T02:16:13;14.10;64.60
13850;DHT22;6995;52.618;13.488;2023-08-08T02:18:38;14.20;67.70
13850;DHT22;6995;52.618;13.488;2023-08-08T02:21:07;14.10;64.60
13850;DHT22;6995;52.618;13.488;2023-08-08T02:23:33;14.00;65.30
13850;DHT22;6995;52.618;13.488;2023-08-08T02:25:59;14.00;66.30
13850;DHT22;6995;52.618;13.488;2023-08-08T02:28:25;14.10;65.40
13850;DHT22;6995;52.618;13.488;2023-08-08T02:30:50;14.10;68.70
13850;DHT22;6995;52.618;13.488;2023-08-08T02:33:16;14.10;68.40
13850;DHT22;6995;52.618;13.488;2023-08-08T02:35:42;14.00;67.80
13850;DHT22;6995;52.618;13.488;2023-08-08T02:38:08;14.10;68.30
13850;DHT22;6995;52.618;13.488;2023-08-08T02:40:33;14.10;69.40
13850;DHT22;6995;52.618;13.488;2023-08-08T02:42:59;13.90;72.90
13850;DHT22;6995;52.618;13.488;2023-08-08T02:45:25;13.80;80.30
13850;DHT22;6995;52.618;13.488;2023-08-08T02:47:50;13.70;84.50
13850;DHT22;6995;52.618;13.488;2023-08-08T02:50:16;13.70;86.90
13850;DHT22;6995;52.618;13.488;2023-08-08T02:52:42;13.70;92.70
13850;DHT22;6995;52.618;13.488;2023-08-08T02:55:08;13.60;97.30
13850;DHT22;6995;52.618;13.488;2023-08-08T02:57:33;13.60;99.90
13850;DHT22;6995;52.618;13.488;2023-08-08T02:59:59;13.50;99.90
13850;DHT22;6995;52.618;13.488;2023-08-08T03:02:25;13.50;99.90
13850;DHT22;6995;52.618;13.488;2023-08-08T03:04:51;13.50;99.90
13850;DHT22;6995;52.618;13.488;2023-08-08T03:07:16;13.50;99.90
13850;DHT22;6995;52.618;13.488;2023-08-08T03:09:42;13.40;99.90
13850;DHT22;6995;52.618;13.488;2023-08-08T03:12:08;13.40;99.90
13850;DHT22;6995;52.618;13.488;2023-08-08T03:14:34;13.40;99.90
13850;DHT22;6995;52.618;13.488;2023-08-08T03:17:00;13.40;99.90
13850;DHT22;6995;52.618;13.488;2023-08-08T03:19:26;13.30;99.90
13850;DHT22;6995;52.618;13.488;2023-08-08T03:21:52;13.30;99.90
13850;DHT22;6995;52.618;13.488;2023-08-08T03:24:17;13.20;99.90
13850;DHT22;6995;52.618;13.488;2023-08-08T03:26:43;13.20;99.90
13850;DHT22;6995;52.618;13.488;2023-08-08T03:29:08;13.20;99.90
13850;DHT22;6995;52.618;13.488;2023-08-08T03:31:38;13.20;99.90
13850;DHT22;6995;52.618;13.488;2023-08-08T03:34:04;13.20;99.90
13850;DHT22;6995;52.618;13.488;2023-08-08T03:36:30;13.20;99.90
13850;DHT22;6995;52.618;13.488;2023-08-08T03:38:55;13.20;99.90
13850;DHT22;6995;52.618;13.488;2023-08-08T03:41:21;13.20;99.90
13850;DHT22;6995;52.618;13.488;2023-08-08T03:43:47;13.20;99.90
13850;DHT22;6995;52.618;13.488;2023-08-08T03:46:12;13.30;99.90
13850;DHT22;6995;52.618;13.488;2023-08-08T03:48:39;13.30;99.90
13850;DHT22;6995;52.618;13.488;2023-08-08T03:51:04;13.40;99.90
13850;DHT22;6995;52.618;13.488;2023-08-08T03:53:30;13.40;99.90
13850;DHT22;6995;52.618;13.488;2023-08-08T03:55:55;13.40;99.90
13850;DHT22;6995;52.618;13.488;2023-08-08T03:58:21;13.50;99.90
13850;DHT22;6995;52.618;13.488;2023-08-08T04:00:47;13.50;99.90
13850;DHT22;6995;52.618;13.488;2023-08-08T04:03:16;13.50;99.90
13850;DHT22;6995;52.618;13.488;2023-08-08T04:05:46;13.50;99.90
13850;DHT22;6995;52.618;13.488;2023-08-08T04:08:15;13.60;99.90
13850;DHT22;6995;52.618;13.488;2023-08-08T04:10:42;13.60;99.90
13850;DHT22;6995;52.618;13.488;2023-08-08T04:13:09;13.60;99.90
13850;DHT22;6995;52.618;13.488;2023-08-08T04:15:34;13.70;99.90
13850;DHT22;6995;52.618;13.488;2023-08-08T04:18:00;13.60;99.90
13850;DHT22;6995;52.618;13.488;2023-08-08T04:20:25;13.60;99.90
13850;DHT22;6995;52.618;13.488;2023-08-08T04:22:51;13.60;99.90
13850;DHT22;6995;52.618;13.488;2023-08-08T04:25:17;13.70;99.90
13850;DHT22;6995;52.618;13.488;2023-08-08T04:27:42;13.60;99.90
13850;DHT22;6995;52.618;13.488;2023-08-08T04:30:08;13.70;99.90
13850;DHT22;6995;52.618;13.488;2023-08-08T04:32:34;13.60;99.90
13850;DHT22;6995;52.618;13.488;2023-08-08T04:35:00;13.60;99.90
13850;DHT22;6995;52.618;13.488;2023-08-08T04:37:25;13.70;99.90
13850;DHT22;6995;52.618;13.488;2023-08-08T04:39:51;13.70;99.90
13850;DHT22;6995;52.618;13.488;2023-08-08T04:42:17;13.70;99.90
13850;DHT22;6995;52.618;13.488;2023-08-08T04:44:42;13.80;99.90
13850;DHT22;6995;52.618;13.488;2023-08-08T04:47:08;13.70;99.90
13850;DHT22;6995;52.618;13.488;2023-08-08T04:49:34;13.80;99.90
13850;DHT22;6995;52.618;13.488;2023-08-08T04:51:59;13.90;99.90
13850;DHT22;6995;52.618;13.488;2023-08-08T04:54:25;13.80;99.90
13850;DHT22;6995;52.618;13.488;2023-08-08T04:56:50;13.90;99.90
13850;DHT22;6995;52.618;13.488;2023-08-08T04:59:16;13.90;99.90
13850;DHT22;6995;52.618;13.488;2023-08-08T05:01:42;14.00;99.90
13850;DHT22;6995;52.618;13.488;2023-08-08T05:04:08;14.00;99.90
13850;DHT22;6995;52.618;13.488;2023-08-08T05:06:34;14.10;99.90
13850;DHT22;6995;52.618;13.488;2023-08-08T05:08:59;14.20;99.90
13850;DHT22;6995;52.618;13.488;2023-08-08T05:11:25;14.30;99.90
13850;DHT22;6995;52.618;13.488;2023-08-08T05:13:51;14.30;99.90
13850;DHT22;6995;52.618;13.488;2023-08-08T05:16:18;14.20;99.90
13850;DHT22;6995;52.618;13.488;2023-08-08T05:18:44;14.20;99.90
13850;DHT22;6995;52.618;13.488;2023-08-08T05:21:11;14.10;99.90
13850;DHT22;6995;52.618;13.488;2023-08-08T05:23:36;14.20;99.90
13850;DHT22;6995;52.618;13.488;2023-08-08T05:26:02;14.40;99.90
13850;DHT22;6995;52.618;13.488;2023-08-08T05:28:29;14.60;99.90
13850;DHT22;6995;52.618;13.488;2023-08-08T05:30:54;14.70;99.90
13850;DHT22;6995;52.618;13.488;2023-08-08T05:33:21;14.70;99.90
13850;DHT22;6995;52.618;13.488;2023-08-08T05:35:47;14.70;99.90
13850;DHT22;6995;52.618;13.488;2023-08-08T05:38:13;14.90;99.90
13850;DHT22;6995;52.618;13.488;2023-08-08T05:40:38;14.90;99.90
13850;DHT22;6995;52.618;13.488;2023-08-08T05:43:04;14.90;99.90
13850;DHT22;6995;52.618;13.488;2023-08-08T05:45:30;14.90;99.90
13850;DHT22;6995;52.618;13.488;2023-08-08T05:47:55;15.10;99.90
13850;DHT22;6995;52.618;13.488;2023-08-08T05:50:21;15.20;99.90
13850;DHT22;6995;52.618;13.488;2023-08-08T05:52:47;15.30;99.90
13850;DHT22;6995;52.618;13.488;2023-08-08T05:55:13;15.50;99.90
13850;DHT22;6995;52.618;13.488;2023-08-08T05:57:39;15.50;99.90
13850;DHT22;6995;52.618;13.488;2023-08-08T06:00:05;15.40;99.90
13850;DHT22;6995;52.618;13.488;2023-08-08T06:02:33;15.40;99.90
13850;DHT22;6995;52.618;13.488;2023-08-08T06:04:59;15.30;99.90
13850;DHT22;6995;52.618;13.488;2023-08-08T06:07:25;15.30;99.90
13850;DHT22;6995;52.618;13.488;2023-08-08T06:09:50;15.30;99.90
13850;DHT22;6995;52.618;13.488;2023-08-08T06:12:16;15.40;99.90
13850;DHT22;6995;52.618;13.488;2023-08-08T06:14:41;15.50;99.90
13850;DHT22;6995;52.618;13.488;2023-08-08T06:17:10;15.60;99.90
13850;DHT22;6995;52.618;13.488;2023-08-08T06:19:36;15.60;99.90
13850;DHT22;6995;52.618;13.488;2023-08-08T06:22:01;15.90;99.90
13850;DHT22;6995;52.618;13.488;2023-08-08T06:24:28;16.00;99.90
13850;DHT22;6995;52.618;13.488;2023-08-08T06:26:54;16.00;99.90
13850;DHT22;6995;52.618;13.488;2023-08-08T06:29:19;15.90;99.90
13850;DHT22;6995;52.618;13.488;2023-08-08T06:31:45;15.90;99.90
13850;DHT22;6995;52.618;13.488;2023-08-08T06:34:11;15.90;99.90
13850;DHT22;6995;52.618;13.488;2023-08-08T06:36:36;16.10;99.90
13850;DHT22;6995;52.618;13.488;2023-08-08T06:39:02;16.00;99.90
13850;DHT22;6995;52.618;13.488;2023-08-08T06:41:28;16.30;99.90
13850;DHT22;6995;52.618;13.488;2023-08-08T06:43:54;16.50;99.90
13850;DHT22;6995;52.618;13.488;2023-08-08T06:46:19;16.70;99.90
13850;DHT22;6995;52.618;13.488;2023-08-08T06:48:46;16.80;99.90
13850;DHT22;6995;52.618;13.488;2023-08-08T06:51:12;16.80;99.90
13850;DHT22;6995;52.618;13.488;2023-08-08T06:53:38;16.50;99.90
13850;DHT22;6995;52.618;13.488;2023-08-08T06:56:04;16.40;99.90
13850;DHT22;6995;52.618;13.488;2023-08-08T06:58:29;16.30;99.90
13850;DHT22;6995;52.618;13.488;2023-08-08T07:00:55;16.30;99.90
13850;DHT22;6995;52.618;13.488;2023-08-08T07:03:21;16.00;99.90
13850;DHT22;6995;52.618;13.488;2023-08-08T07:05:46;16.10;99.90
13850;DHT22;6995;52.618;13.488;2023-08-08T07:08:17;16.30;99.90
13850;DHT22;6995;52.618;13.488;2023-08-08T07:10:43;16.20;99.90
13850;DHT22;6995;52.618;13.488;2023-08-08T07:13:09;16.10;99.90
13850;DHT22;6995;52.618;13.488;2023-08-08T07:15:34;16.30;99.90
13850;DHT22;6995;52.618;13.488;2023-08-08T07:18:00;16.10;99.90
13850;DHT22;6995;52.618;13.488;2023-08-08T07:20:26;16.40;99.90
13850;DHT22;6995;52.618;13.488;2023-08-08T07:22:51;16.50;99.90
13850;DHT22;6995;52.618;13.488;2023-08-08T07:25:17;16.70;99.90
13850;DHT22;6995;52.618;13.488;2023-08-08T07:27:42;16.70;99.90
13850;DHT22;6995;52.618;13.488;2023-08-08T07:30:08;16.90;99.90
13850;DHT22;6995;52.618;13.488;2023-08-08T07:32:34;17.00;99.90
13850;DHT22;6995;52.618;13.488;2023-08-08T07:35:00;17.30;99.90
13850;DHT22;6995;52.618;13.488;2023-08-08T07:37:30;17.40;98.80
13850;DHT22;6995;52.618;13.488;2023-08-08T07:39:56;17.50;93.40
13850;DHT22;6995;52.618;13.488;2023-08-08T07:42:21;17.60;87.60
13850;DHT22;6995;52.618;13.488;2023-08-08T07:44:47;17.40;86.80
13850;DHT22;6995;52.618;13.488;2023-08-08T07:47:13;17.30;91.70
13850;DHT22;6995;52.618;13.488;2023-08-08T07:49:38;17.10;84.30
13850;DHT22;6995;52.618;13.488;2023-08-08T07:52:04;17.00;89.50
13850;DHT22;6995;52.618;13.488;2023-08-08T07:54:30;17.00;93.50
13850;DHT22;6995;52.618;13.488;2023-08-08T07:56:56;17.30;92.70
13850;DHT22;6995;52.618;13.488;2023-08-08T07:59:21;17.40;85.40
13850;DHT22;6995;52.618;13.488;2023-08-08T08:01:47;17.40;84.20
13850;DHT22;6995;52.618;13.488;2023-08-08T08:04:12;17.30;87.80
13850;DHT22;6995;52.618;13.488;2023-08-08T08:06:38;17.40;80.40
13850;DHT22;6995;52.618;13.488;2023-08-08T08:09:04;17.60;85.30
13850;DHT22;6995;52.618;13.488;2023-08-08T08:11:29;17.60;77.30
13850;DHT22;6995;52.618;13.488;2023-08-08T08:13:55;17.90;78.10
13850;DHT22;6995;52.618;13.488;2023-08-08T08:16:21;18.10;68.90
13850;DHT22;6995;52.618;13.488;2023-08-08T08:18:46;18.60;55.90
13850;DHT22;6995;52.618;13.488;2023-08-08T08:21:13;18.50;39.20
13850;DHT22;6995;52.618;13.488;2023-08-08T08:23:39;18.30;37.20
13850;DHT22;6995;52.618;13.488;2023-08-08T08:26:05;18.30;39.20
13850;DHT22;6995;52.618;13.488;2023-08-08T08:28:31;17.90;44.20
13850;DHT22;6995;52.618;13.488;2023-08-08T08:30:57;17.80;45.70
13850;DHT22;6995;52.618;13.488;2023-08-08T08:33:22;18.00;46.40
13850;DHT22;6995;52.618;13.488;2023-08-08T08:35:48;17.80;50.70
13850;DHT22;6995;52.618;13.488;2023-08-08T08:38:14;17.40;54.80
13850;DHT22;6995;52.618;13.488;2023-08-08T08:40:41;17.60;59.70
13850;DHT22;6995;52.618;13.488;2023-08-08T08:43:08;17.60;58.00
13850;DHT22;6995;52.618;13.488;2023-08-08T08:45:38;17.40;53.00
13850;DHT22;6995;52.618;13.488;2023-08-08T08:48:09;17.60;53.00
13850;DHT22;6995;52.618;13.488;2023-08-08T08:50:36;17.70;45.60
13850;DHT22;6995;52.618;13.488;2023-08-08T08:53:03;17.70;45.00
13850;DHT22;6995;52.618;13.488;2023-08-08T08:55:30;17.80;42.10
13850;DHT22;6995;52.618;13.488;2023-08-08T08:57:56;17.90;38.30
13850;DHT22;6995;52.618;13.488;2023-08-08T09:00:21;17.60;35.30
13850;DHT22;6995;52.618;13.488;2023-08-08T09:02:48;17.80;33.40
13850;DHT22;6995;52.618;13.488;2023-08-08T09:05:15;18.00;31.30
13850;DHT22;6995;52.618;13.488;2023-08-08T09:07:41;18.10;29.30
13850;DHT22;6995;52.618;13.488;2023-08-08T09:10:07;18.10;29.60
13850;DHT22;6995;52.618;13.488;2023-08-08T09:12:34;18.00;26.10
13850;DHT22;6995;52.618;13.488;2023-08-08T09:15:03;18.30;27.30
13850;DHT22;6995;52.618;13.488;2023-08-08T09:17:36;18.70;25.20
13850;DHT22;6995;52.618;13.488;2023-08-08T09:20:01;18.80;20.00
13850;DHT22;6995;52.618;13.488;2023-08-08T09:22:29;19.10;17.50
13850;DHT22;6995;52.618;13.488;2023-08-08T09:24:55;19.10;15.90
13850;DHT22;6995;52.618;13.488;2023-08-08T09:27:21;19.20;16.20
13850;DHT22;6995;52.618;13.488;2023-08-08T09:29:50;19.00;14.00
13850;DHT22;6995;52.618;13.488;2023-08-08T09:32:15;18.70;18.30
13850;DHT22;6995;52.618;13.488;2023-08-08T09:34:43;18.70;15.50
13850;DHT22;6995;52.618;13.488;2023-08-08T09:37:09;18.80;19.50
13850;DHT22;6995;52.618;13.488;2023-08-08T09:39:36;18.50;18.10
13850;DHT22;6995;52.618;13.488;2023-08-08T09:42:02;18.60;18.90
13850;DHT22;6995;52.618;13.488;2023-08-08T09:44:29;18.70;16.50
13850;DHT22;6995;52.618;13.488;2023-08-08T09:46:57;19.30;16.70
13850;DHT22;6995;52.618;13.488;2023-08-08T09:49:22;19.30;16.10
13850;DHT22;6995;52.618;13.488;2023-08-08T09:51:49;19.10;15.00
13850;DHT22;6995;52.618;13.488;2023-08-08T09:54:15;18.70;16.60
13850;DHT22;6995;52.618;13.488;2023-08-08T09:56:42;18.90;15.80
13850;DHT22;6995;52.618;13.488;2023-08-08T09:59:09;19.10;14.10
13850;DHT22;6995;52.618;13.488;2023-08-08T10:01:36;19.00;12.20
13850;DHT22;6995;52.618;13.488;2023-08-08T10:04:06;18.90;8.70
13850;DHT22;6995;52.618;13.488;2023-08-08T10:06:32;18.90;13.50
13850;DHT22;6995;52.618;13.488;2023-08-08T10:08:59;18.60;16.50
13850;DHT22;6995;52.618;13.488;2023-08-08T10:11:25;18.00;38.50
13850;DHT22;6995;52.618;13.488;2023-08-08T10:13:53;17.50;99.90
13850;DHT22;6995;52.618;13.488;2023-08-08T10:16:19;16.70;99.90
13850;DHT22;6995;52.618;13.488;2023-08-08T10:19:01;16.40;99.90
13850;DHT22;6995;52.618;13.488;2023-08-08T10:21:27;16.40;99.90
13850;DHT22;6995;52.618;13.488;2023-08-08T10:24:09;16.40;99.90
13850;DHT22;6995;52.618;13.488;2023-08-08T10:26:54;16.60;99.90
13850;DHT22;6995;52.618;13.488;2023-08-08T10:29:25;16.90;99.90
13850;DHT22;6995;52.618;13.488;2023-08-08T10:34:36;17.40;99.90
13850;DHT22;6995;52.618;13.488;2023-08-08T10:37:05;17.70;99.90
13850;DHT22;6995;52.618;13.488;2023-08-08T10:39:31;17.90;99.90
13850;DHT22;6995;52.618;13.488;2023-08-08T10:42:02;18.40;99.90
13850;DHT22;6995;52.618;13.488;2023-08-08T10:44:28;19.00;99.90
13850;DHT22;6995;52.618;13.488;2023-08-08T10:46:55;19.30;82.90
13850;DHT22;6995;52.618;13.488;2023-08-08T10:49:21;19.50;52.90
13850;DHT22;6995;52.618;13.488;2023-08-08T10:51:48;19.80;32.20
13850;DHT22;6995;52.618;13.488;2023-08-08T10:54:19;19.80;28.10
13850;DHT22;6995;52.618;13.488;2023-08-08T10:56:50;19.00;33.50
13850;DHT22;6995;52.618;13.488;2023-08-08T10:59:24;17.50;99.90
13850;DHT22;6995;52.618;13.488;2023-08-08T11:01:51;16.60;99.90
13850;DHT22;6995;52.618;13.488;2023-08-08T11:04:23;16.30;99.90
13850;DHT22;6995;52.618;13.488;2023-08-08T11:06:53;16.30;99.90
13850;DHT22;6995;52.618;13.488;2023-08-08T11:09:19;16.40;99.90
13850;DHT22;6995;52.618;13.488;2023-08-08T11:11:45;16.80;99.90
13850;DHT22;6995;52.618;13.488;2023-08-08T11:14:16;17.10;99.90
13850;DHT22;6995;52.618;13.488;2023-08-08T11:16:43;17.10;99.90
13850;DHT22;6995;52.618;13.488;2023-08-08T11:19:09;17.00;99.90
13850;DHT22;6995;52.618;13.488;2023-08-08T11:21:36;17.10;99.90
13850;DHT22;6995;52.618;13.488;2023-08-08T11:24:04;17.30;99.90
13850;DHT22;6995;52.618;13.488;2023-08-08T11:26:30;17.80;99.90
13850;DHT22;6995;52.618;13.488;2023-08-08T11:29:01;18.00;74.00
13850;DHT22;6995;52.618;13.488;2023-08-08T11:31:28;18.30;30.30
13850;DHT22;6995;52.618;13.488;2023-08-08T11:33:55;18.80;27.20
13850;DHT22;6995;52.618;13.488;2023-08-08T11:36:21;19.00;24.00
13850;DHT22;6995;52.618;13.488;2023-08-08T11:38:49;19.10;18.70
13850;DHT22;6995;52.618;13.488;2023-08-08T11:41:16;19.00;19.00
13850;DHT22;6995;52.618;13.488;2023-08-08T11:43:43;19.20;11.30
13850;DHT22;6995;52.618;13.488;2023-08-08T11:46:12;19.20;6.70
13850;DHT22;6995;52.618;13.488;2023-08-08T11:48:38;19.70;6.00
13850;DHT22;6995;52.618;13.488;2023-08-08T11:51:08;19.60;1.00
13850;DHT22;6995;52.618;13.488;2023-08-08T11:53:35;19.50;1.00
13850;DHT22;6995;52.618;13.488;2023-08-08T11:56:02;19.80;1.00
13850;DHT22;6995;52.618;13.488;2023-08-08T11:58:32;19.80;1.00
13850;DHT22;6995;52.618;13.488;2023-08-08T12:00:57;19.50;1.00
13850;DHT22;6995;52.618;13.488;2023-08-08T12:03:25;19.30;1.00
13850;DHT22;6995;52.618;13.488;2023-08-08T12:05:51;19.50;1.40
13850;DHT22;6995;52.618;13.488;2023-08-08T12:08:18;19.50;1.00
13850;DHT22;6995;52.618;13.488;2023-08-08T12:10:49;19.90;18.90
13850;DHT22;6995;52.618;13.488;2023-08-08T12:13:23;20.20;1.00
13850;DHT22;6995;52.618;13.488;2023-08-08T12:15:52;20.30;14.90
13850;DHT22;6995;52.618;13.488;2023-08-08T12:18:19;20.30;1.00
13850;DHT22;6995;52.618;13.488;2023-08-08T12:20:45;20.80;1.00
13850;DHT22;6995;52.618;13.488;2023-08-08T12:23:12;21.10;1.00
13850;DHT22;6995;52.618;13.488;2023-08-08T12:25:38;21.30;1.00
13850;DHT22;6995;52.618;13.488;2023-08-08T12:28:04;21.20;1.00
13850;DHT22;6995;52.618;13.488;2023-08-08T12:30:30;21.60;1.00
13850;DHT22;6995;52.618;13.488;2023-08-08T12:32:57;22.50;1.00
13850;DHT22;6995;52.618;13.488;2023-08-08T12:35:22;22.30;1.00
13850;DHT22;6995;52.618;13.488;2023-08-08T12:37:48;21.80;1.00
13850;DHT22;6995;52.618;13.488;2023-08-08T12:40:13;21.50;1.00
13850;DHT22;6995;52.618;13.488;2023-08-08T12:42:39;21.70;1.00
13850;DHT22;6995;52.618;13.488;2023-08-08T12:45:07;22.00;1.00
13850;DHT22;6995;52.618;13.488;2023-08-08T12:47:32;22.00;1.00
13850;DHT22;6995;52.618;13.488;2023-08-08T12:50:02;22.50;1.00
13850;DHT22;6995;52.618;13.488;2023-08-08T12:52:28;22.80;1.00
13850;DHT22;6995;52.618;13.488;2023-08-08T12:54:54;23.70;1.00
13850;DHT22;6995;52.618;13.488;2023-08-08T12:57:19;24.60;1.00
13850;DHT22;6995;52.618;13.488;2023-08-08T12:59:45;23.60;1.00
13850;DHT22;6995;52.618;13.488;2023-08-08T13:02:14;22.30;1.00
13850;DHT22;6995;52.618;13.488;2023-08-08T13:04:39;21.30;1.00
13850;DHT22;6995;52.618;13.488;2023-08-08T13:07:05;20.70;1.00
13850;DHT22;6995;52.618;13.488;2023-08-08T13:09:30;20.10;1.00
13850;DHT22;6995;52.618;13.488;2023-08-08T13:11:56;19.80;1.00
13850;DHT22;6995;52.618;13.488;2023-08-08T13:14:22;19.60;1.00
13850;DHT22;6995;52.618;13.488;2023-08-08T13:16:50;19.10;1.00
13850;DHT22;6995;52.618;13.488;2023-08-08T13:19:16;19.70;1.00
13850;DHT22;6995;52.618;13.488;2023-08-08T13:21:45;20.70;1.00
13850;DHT22;6995;52.618;13.488;2023-08-08T13:24:10;20.90;1.00
13850;DHT22;6995;52.618;13.488;2023-08-08T13:26:41;21.20;1.00
13850;DHT22;6995;52.618;13.488;2023-08-08T13:29:07;21.50;1.00
13850;DHT22;6995;52.618;13.488;2023-08-08T13:31:36;21.50;1.00
13850;DHT22;6995;52.618;13.488;2023-08-08T13:34:02;21.70;1.00
13850;DHT22;6995;52.618;13.488;2023-08-08T13:36:48;22.40;1.00
13850;DHT22;6995;52.618;13.488;2023-08-08T13:39:13;22.40;1.00
13850;DHT22;6995;52.618;13.488;2023-08-08T13:41:39;21.30;1.00
13850;DHT22;6995;52.618;13.488;2023-08-08T13:44:05;20.60;1.00
13850;DHT22;6995;52.618;13.488;2023-08-08T13:46:31;19.70;1.00
13850;DHT22;6995;52.618;13.488;2023-08-08T13:48:57;19.10;16.30
13850;DHT22;6995;52.618;13.488;2023-08-08T13:51:22;18.70;19.00
13850;DHT22;6995;52.618;13.488;2023-08-08T13:53:48;18.10;99.90
13850;DHT22;6995;52.618;13.488;2023-08-08T13:56:14;17.30;99.90
13850;DHT22;6995;52.618;13.488;2023-08-08T13:58:40;17.00;99.90
13850;DHT22;6995;52.618;13.488;2023-08-08T14:01:06;16.90;99.90
13850;DHT22;6995;52.618;13.488;2023-08-08T14:03:32;16.80;99.90
13850;DHT22;6995;52.618;13.488;2023-08-08T14:05:57;17.50;99.90
13850;DHT22;6995;52.618;13.488;2023-08-08T14:08:23;18.30;99.90
13850;DHT22;6995;52.618;13.488;2023-08-08T14:10:49;19.40;80.00
13850;DHT22;6995;52.618;13.488;2023-08-08T14:13:14;20.30;37.90
13850;DHT22;6995;52.618;13.488;2023-08-08T14:15:40;20.90;8.70
13850;DHT22;6995;52.618;13.488;2023-08-08T14:18:06;22.00;1.00
13850;DHT22;6995;52.618;13.488;2023-08-08T14:20:32;23.00;1.00
13850;DHT22;6995;52.618;13.488;2023-08-08T14:22:58;23.40;1.00
13850;DHT22;6995;52.618;13.488;2023-08-08T14:25:23;23.60;1.00
13850;DHT22;6995;52.618;13.488;2023-08-08T14:27:49;23.40;1.00
13850;DHT22;6995;52.618;13.488;2023-08-08T14:30:15;23.80;1.00
13850;DHT22;6995;52.618;13.488;2023-08-08T14:32:40;23.60;1.00
13850;DHT22;6995;52.618;13.488;2023-08-08T14:35:06;23.70;1.00
13850;DHT22;6995;52.618;13.488;2023-08-08T14:37:37;24.30;1.00
13850;DHT22;6995;52.618;13.488;2023-08-08T14:40:03;24.80;1.00
13850;DHT22;6995;52.618;13.488;2023-08-08T14:42:29;24.50;1.00
13850;DHT22;6995;52.618;13.488;2023-08-08T14:44:54;23.40;1.00
13850;DHT22;6995;52.618;13.488;2023-08-08T14:47:20;23.90;1.00
13850;DHT22;6995;52.618;13.488;2023-08-08T14:49:46;24.70;1.00
13850;DHT22;6995;52.618;13.488;2023-08-08T14:52:12;24.40;1.00
13850;DHT22;6995;52.618;13.488;2023-08-08T14:54:39;22.70;1.00
13850;DHT22;6995;52.618;13.488;2023-08-08T14:57:05;21.80;1.00
13850;DHT22;6995;52.618;13.488;2023-08-08T14:59:31;21.40;1.00
13850;DHT22;6995;52.618;13.488;2023-08-08T15:01:57;20.90;1.00
13850;DHT22;6995;52.618;13.488;2023-08-08T15:04:22;21.40;1.00
13850;DHT22;6995;52.618;13.488;2023-08-08T15:06:48;21.70;1.00
13850;DHT22;6995;52.618;13.488;2023-08-08T15:09:14;20.80;1.00
13850;DHT22;6995;52.618;13.488;2023-08-08T15:11:39;20.40;1.00
13850;DHT22;6995;52.618;13.488;2023-08-08T15:14:05;20.10;9.10
13850;DHT22;6995;52.618;13.488;2023-08-08T15:16:31;19.70;1.00
13850;DHT22;6995;52.618;13.488;2023-08-08T15:18:56;19.10;1.00
13850;DHT22;6995;52.618;13.488;2023-08-08T15:21:22;18.70;1.00
13850;DHT22;6995;52.618;13.488;2023-08-08T15:23:48;18.40;1.00
13850;DHT22;6995;52.618;13.488;2023-08-08T15:26:14;18.40;1.00
13850;DHT22;6995;52.618;13.488;2023-08-08T15:28:41;18.30;3.60
13850;DHT22;6995;52.618;13.488;2023-08-08T15:31:07;18.30;8.20
13850;DHT22;6995;52.618;13.488;2023-08-08T15:33:33;17.90;35.90
13850;DHT22;6995;52.618;13.488;2023-08-08T15:35:58;17.10;99.90